createdAt,value
2022-09-23T00:01:43.444Z,7.54
2022-09-23T00:03:52.128Z,7.51
2022-09-23T00:06:03.582Z,7.46
2022-09-23T00:08:14.326Z,7.46
2022-09-23T00:10:22.142Z,7.44
2022-09-23T00:12:30.357Z,7.46
2022-09-23T00:14:39.956Z,7.46
2022-09-23T00:16:50.562Z,7.48
2022-09-23T00:18:58.309Z,7.40
2022-09-23T00:21:06.615Z,7.41
2022-09-23T00:23:14.348Z,7.39
2022-09-23T00:25:22.327Z,7.30
2022-09-23T00:27:31.240Z,7.30
2022-09-23T00:29:39.034Z,7.18
2022-09-23T00:31:46.792Z,7.23
2022-09-23T00:34:02.102Z,7.27
2022-09-23T00:36:15.115Z,7.25
2022-09-23T00:38:22.827Z,7.27
2022-09-23T00:40:30.642Z,7.22
2022-09-23T00:42:58.068Z,7.25
2022-09-23T00:45:07.905Z,7.16
2022-09-23T00:47:20.319Z,7.16
2022-09-23T00:49:33.465Z,7.09
2022-09-23T00:51:44.161Z,7.19
2022-09-23T00:53:54.146Z,7.15
2022-09-23T00:56:07.486Z,7.08
2022-09-23T00:58:20.145Z,7.07
2022-09-23T01:00:28.176Z,7.10
2022-09-23T01:02:37.721Z,7.06
2022-09-23T01:04:48.276Z,7.06
2022-09-23T01:06:56.146Z,7.04
2022-09-23T01:09:03.937Z,7.01
2022-09-23T01:11:25.352Z,6.97
2022-09-23T01:13:44.767Z,6.97
2022-09-23T01:15:59.469Z,6.92
2022-09-23T01:18:16.730Z,6.98
2022-09-23T01:20:42.227Z,6.88
2022-09-23T01:22:58.453Z,6.84
2022-09-23T01:25:35.064Z,6.77
2022-09-23T01:28:03.836Z,6.76
2022-09-23T01:30:21.684Z,6.80
2022-09-23T01:32:52.527Z,6.80
2022-09-23T01:35:09.607Z,6.77
2022-09-23T01:37:24.945Z,6.84
2022-09-23T01:39:39.003Z,6.78
2022-09-23T01:41:57.182Z,6.80
2022-09-23T01:44:08.626Z,6.74
2022-09-23T01:46:21.520Z,6.75
2022-09-23T01:48:38.297Z,6.65
2022-09-23T01:51:01.413Z,6.64
2022-09-23T01:53:17.518Z,6.61
2022-09-23T01:55:31.001Z,6.59
2022-09-23T01:57:46.163Z,6.55
2022-09-23T01:59:58.812Z,6.56
2022-09-23T02:02:11.860Z,6.52
2022-09-23T02:04:28.300Z,6.57
2022-09-23T02:06:41.457Z,6.49
2022-09-23T02:08:56.586Z,6.45
2022-09-23T02:11:10.203Z,6.53
2022-09-23T02:13:22.653Z,6.50
2022-09-23T02:15:36.622Z,6.43
2022-09-23T02:17:52.049Z,6.40
2022-09-23T02:20:07.566Z,6.38
2022-09-23T02:22:20.270Z,6.40
2022-09-23T02:24:32.910Z,6.40
2022-09-23T02:26:46.519Z,6.43
2022-09-23T02:28:59.848Z,6.38
2022-09-23T02:31:13.178Z,6.33
2022-09-23T02:33:26.552Z,6.30
2022-09-23T02:35:42.945Z,6.28
2022-09-23T02:37:56.521Z,6.22
2022-09-23T02:40:13.147Z,6.28
2022-09-23T02:42:25.067Z,6.21
2022-09-23T02:44:33.290Z,6.21
2022-09-23T02:46:42.515Z,6.18
2022-09-23T02:48:56.943Z,6.30
2022-09-23T02:51:07.787Z,6.18
2022-09-23T02:53:16.203Z,6.14
2022-09-23T02:55:26.463Z,6.10
2022-09-23T02:57:34.898Z,6.05
2022-09-23T02:59:43.683Z,5.99
2022-09-23T03:02:05.410Z,6.04
2022-09-23T03:04:23.341Z,5.95
2022-09-23T03:06:37.366Z,5.95
2022-09-23T03:08:53.357Z,6.00
2022-09-23T03:11:07.593Z,5.98
2022-09-23T03:13:26.078Z,5.95
2022-09-23T03:15:40.726Z,5.89
2022-09-23T03:17:55.541Z,5.75
2022-09-23T03:20:07.435Z,5.73
2022-09-23T03:22:24.207Z,5.79
2022-09-23T03:24:34.971Z,5.84
2022-09-23T03:26:45.251Z,5.81
2022-09-23T03:28:53.575Z,5.74
2022-09-23T03:31:02.731Z,5.71
2022-09-23T03:33:14.666Z,5.68
2022-09-23T03:35:26.340Z,5.67
2022-09-23T03:37:42.541Z,5.76
2022-09-23T03:39:54.644Z,5.90
2022-09-23T03:42:06.437Z,5.87
2022-09-23T03:44:15.562Z,5.89
2022-09-23T03:46:24.122Z,5.86
2022-09-23T03:48:31.926Z,5.84
2022-09-23T03:50:39.628Z,5.85
2022-09-23T03:52:50.629Z,5.78
2022-09-23T03:55:01.451Z,5.78
2022-09-23T03:57:09.490Z,5.84
2022-09-23T03:59:17.441Z,5.70
2022-09-23T04:01:25.195Z,5.68
2022-09-23T04:03:33.241Z,5.77
2022-09-23T04:05:41.319Z,5.78
2022-09-23T04:07:53.129Z,5.73
2022-09-23T04:10:00.791Z,5.68
2022-09-23T04:12:09.580Z,5.70
2022-09-23T04:14:17.912Z,5.69
2022-09-23T04:16:26.080Z,5.63
2022-09-23T04:18:34.138Z,5.57
2022-09-23T04:20:42.297Z,5.63
2022-09-23T04:22:52.975Z,5.57
2022-09-23T04:25:00.705Z,5.52
2022-09-23T04:27:08.572Z,5.52
2022-09-23T04:29:16.316Z,5.54
2022-09-23T04:31:24.492Z,5.41
2022-09-23T04:33:32.463Z,5.28
2022-09-23T04:35:40.852Z,5.29
2022-09-23T04:37:53.214Z,5.24
2022-09-23T04:40:01.048Z,5.36
2022-09-23T04:43:02.381Z,5.38
2022-09-23T04:45:11.246Z,5.28
2022-09-23T04:47:19.423Z,5.12
2022-09-23T04:49:27.152Z,5.10
2022-09-23T04:51:34.943Z,5.00
2022-09-23T04:53:48.602Z,4.89
2022-09-23T04:55:56.377Z,4.86
2022-09-23T04:58:04.174Z,4.84
2022-09-23T05:00:15.242Z,4.86
2022-09-23T05:02:23.075Z,4.84
2022-09-23T05:04:31.551Z,4.87
2022-09-23T05:06:39.485Z,4.96
2022-09-23T05:08:53.743Z,5.01
2022-09-23T05:11:02.128Z,5.01
2022-09-23T05:13:09.823Z,4.92
2022-09-23T05:15:17.599Z,4.99
2022-09-23T05:17:25.438Z,5.01
2022-09-23T05:19:33.185Z,5.04
2022-09-23T05:21:40.911Z,5.08
2022-09-23T05:23:54.306Z,5.05
2022-09-23T05:26:03.516Z,5.04
2022-09-23T05:28:40.979Z,5.11
2022-09-23T05:30:48.919Z,5.11
2022-09-23T05:32:56.704Z,5.17
2022-09-23T05:35:04.649Z,5.24
2022-09-23T05:37:12.535Z,5.21
2022-09-23T05:39:22.889Z,5.29
2022-09-23T05:41:30.787Z,5.34
2022-09-23T05:43:38.783Z,5.38
2022-09-23T05:45:46.538Z,5.42
2022-09-23T05:47:54.231Z,5.61
2022-09-23T05:50:02.010Z,5.66
2022-09-23T05:52:09.768Z,5.67
2022-09-23T05:54:17.664Z,5.75
2022-09-23T05:56:30.273Z,5.87
2022-09-23T05:58:38.177Z,5.87
2022-09-23T06:00:46.668Z,5.74
2022-09-23T06:02:54.464Z,5.88
2022-09-23T06:05:02.328Z,5.89
2022-09-23T06:07:10.022Z,5.93
2022-09-23T06:09:18.229Z,5.92
2022-09-23T06:11:29.916Z,6.15
2022-09-23T06:13:39.047Z,6.34
2022-09-23T06:15:47.785Z,6.41
2022-09-23T06:17:56.943Z,6.70
2022-09-23T06:20:04.872Z,6.93
2022-09-23T06:22:14.505Z,7.36
2022-09-23T06:24:25.989Z,7.61
2022-09-23T06:26:41.414Z,7.84
2022-09-23T06:28:49.075Z,8.41
2022-09-23T06:31:00.232Z,8.41
2022-09-23T06:33:08.255Z,8.18
2022-09-23T06:35:24.649Z,7.84
2022-09-23T06:37:35.688Z,7.61
2022-09-23T06:39:43.433Z,8.08
2022-09-23T06:41:54.357Z,8.30
2022-09-23T06:44:06.236Z,8.53
2022-09-23T06:46:18.992Z,8.41
2022-09-23T06:48:27.497Z,8.29
2022-09-23T06:50:35.188Z,8.50
2022-09-23T06:52:42.959Z,8.58
2022-09-23T06:54:50.946Z,8.55
2022-09-23T06:57:01.246Z,8.73
2022-09-23T06:59:09.622Z,9.08
2022-09-23T07:01:20.148Z,9.37
2022-09-23T07:03:28.033Z,9.58
2022-09-23T07:05:35.754Z,10.39
2022-09-23T07:07:43.608Z,10.54
2022-09-23T07:09:51.411Z,11.23
2022-09-23T07:12:01.701Z,12.10
2022-09-23T07:14:09.602Z,12.40
2022-09-23T07:16:17.476Z,12.64
2022-09-23T07:18:25.946Z,13.20
2022-09-23T07:20:34.871Z,14.13
2022-09-23T07:22:42.586Z,14.21
2022-09-23T07:24:50.350Z,15.33
2022-09-23T07:26:58.227Z,14.93
2022-09-23T07:29:08.525Z,14.48
2022-09-23T07:31:31.623Z,12.84
2022-09-23T07:33:45.908Z,12.75
2022-09-23T07:35:53.642Z,12.34
2022-09-23T07:38:01.607Z,11.70
2022-09-23T07:40:10.148Z,11.01
2022-09-23T07:42:17.869Z,10.75
2022-09-23T07:44:29.250Z,10.58
2022-09-23T07:46:39.088Z,10.52
2022-09-23T07:48:47.887Z,10.75
2022-09-23T07:50:55.628Z,10.58
2022-09-23T07:53:04.221Z,10.77
2022-09-23T07:55:11.991Z,11.39
2022-09-23T07:57:22.043Z,11.76
2022-09-23T07:59:32.314Z,11.66
2022-09-23T08:01:42.640Z,12.15
2022-09-23T08:03:50.397Z,11.87
2022-09-23T08:06:07.296Z,11.86
2022-09-23T08:08:15.049Z,11.80
2022-09-23T08:10:22.852Z,12.36
2022-09-23T08:12:36.648Z,12.84
2022-09-23T08:14:47.450Z,12.77
2022-09-23T08:16:55.636Z,12.88
2022-09-23T08:21:31.598Z,12.50
2022-09-23T08:23:39.318Z,12.12
2022-09-23T08:25:48.642Z,12.64
2022-09-23T08:27:57.071Z,13.09
2022-09-23T08:30:08.373Z,12.58
2022-09-23T08:32:16.183Z,12.81
2022-09-23T08:34:25.006Z,13.48
2022-09-23T08:36:34.139Z,13.52
2022-09-23T08:38:42.439Z,13.00
2022-09-23T08:40:52.086Z,13.66
2022-09-23T08:43:00.223Z,13.29
2022-09-23T08:45:18.779Z,13.40
2022-09-23T08:47:30.258Z,13.71
2022-09-23T08:49:42.098Z,13.20
2022-09-23T08:51:52.002Z,13.72
2022-09-23T08:54:01.991Z,13.20
2022-09-23T08:56:16.430Z,13.17
2022-09-23T08:58:39.295Z,12.72
2022-09-23T09:00:58.077Z,12.32
2022-09-23T09:03:15.953Z,12.57
2022-09-23T09:05:29.280Z,13.57
2022-09-23T09:07:40.534Z,13.62
2022-09-23T09:09:53.986Z,14.32
2022-09-23T09:12:09.249Z,14.79
2022-09-23T09:14:25.289Z,14.54
2022-09-23T09:17:02.679Z,15.47
2022-09-23T09:19:17.194Z,15.29
2022-09-23T09:21:29.393Z,16.05
2022-09-23T09:23:43.403Z,16.12
2022-09-23T09:25:53.717Z,17.32
2022-09-23T09:28:02.467Z,17.09
2022-09-23T09:30:15.003Z,17.32
2022-09-23T09:32:40.760Z,17.38
2022-09-23T09:34:55.977Z,17.86
2022-09-23T09:37:12.665Z,17.87
2022-09-23T09:39:25.460Z,18.51
2022-09-23T09:41:34.024Z,18.83
2022-09-23T09:43:44.275Z,19.60
2022-09-23T09:46:08.460Z,19.09
2022-09-23T09:48:24.656Z,17.76
2022-09-23T09:50:50.036Z,17.40
2022-09-23T09:53:19.093Z,18.84
2022-09-23T09:55:30.584Z,19.71
2022-09-23T09:57:42.417Z,20.57
2022-09-23T09:59:50.160Z,21.27
2022-09-23T10:02:17.927Z,21.67
2022-09-23T10:04:37.878Z,22.42
2022-09-23T10:06:45.578Z,20.78
2022-09-23T10:09:28.093Z,20.97
2022-09-23T10:11:36.931Z,21.16
2022-09-23T10:13:46.481Z,20.26
2022-09-23T10:15:55.107Z,22.02
2022-09-23T10:18:04.115Z,22.96
2022-09-23T10:20:18.127Z,23.33
2022-09-23T10:22:30.312Z,24.02
2022-09-23T10:24:39.131Z,23.08
2022-09-23T10:26:56.525Z,23.35
2022-09-23T10:29:05.934Z,23.11
2022-09-23T10:31:16.756Z,22.21
2022-09-23T10:33:30.530Z,20.71
2022-09-23T10:35:57.331Z,20.60
2022-09-23T10:38:05.089Z,19.74
2022-09-23T10:40:34.658Z,20.26
2022-09-23T10:43:07.978Z,20.03
2022-09-23T10:45:38.543Z,18.75
2022-09-23T10:47:57.672Z,20.03
2022-09-23T10:50:23.200Z,20.56
2022-09-23T10:52:46.379Z,20.55
2022-09-23T10:55:07.538Z,20.12
2022-09-23T10:57:42.055Z,19.42
2022-09-23T11:00:04.279Z,19.46
2022-09-23T11:02:30.304Z,19.06
2022-09-23T11:05:02.921Z,19.34
2022-09-23T11:07:20.831Z,19.33
2022-09-23T11:09:46.690Z,19.44
2022-09-23T11:12:08.414Z,19.02
2022-09-23T11:14:41.437Z,18.68
2022-09-23T11:17:06.609Z,17.83
2022-09-23T11:19:43.403Z,18.64
2022-09-23T11:22:03.946Z,19.23
2022-09-23T11:24:42.919Z,17.82
2022-09-23T11:26:57.937Z,17.65
2022-09-23T11:29:31.263Z,17.69
2022-09-23T11:31:47.434Z,17.41
2022-09-23T11:34:06.975Z,17.43
2022-09-23T11:36:24.015Z,17.32
2022-09-23T11:38:38.643Z,17.41
2022-09-23T11:40:54.962Z,17.36
2022-09-23T11:43:09.172Z,17.42
2022-09-23T11:45:21.529Z,17.40
2022-09-23T11:47:48.706Z,17.53
2022-09-23T11:50:02.994Z,17.65
2022-09-23T11:52:19.601Z,17.73
2022-09-23T11:54:32.712Z,17.86
2022-09-23T11:56:49.261Z,17.90
2022-09-23T11:59:04.948Z,18.07
2022-09-23T12:01:22.257Z,18.04
2022-09-23T12:03:44.904Z,17.59
2022-09-23T12:06:00.965Z,17.66
2022-09-23T12:08:17.963Z,17.67
2022-09-23T12:10:28.900Z,17.70
2022-09-23T12:12:47.859Z,17.75
2022-09-23T12:15:01.640Z,17.90
2022-09-23T12:17:30.598Z,17.91
2022-09-23T12:20:07.829Z,17.79
2022-09-23T12:22:31.532Z,17.79
2022-09-23T12:24:52.550Z,17.92
2022-09-23T12:27:06.131Z,18.11
2022-09-23T12:29:17.681Z,18.27
2022-09-23T12:31:30.766Z,17.96
2022-09-23T12:33:39.215Z,18.02
2022-09-23T12:35:49.197Z,18.09
2022-09-23T12:37:57.414Z,17.91
2022-09-23T12:40:19.377Z,17.74
2022-09-23T12:42:30.898Z,17.89
2022-09-23T12:44:44.620Z,18.04
2022-09-23T12:47:28.984Z,17.88
2022-09-23T12:49:39.731Z,17.71
2022-09-23T12:52:27.766Z,17.49
2022-09-23T12:54:35.583Z,17.59
2022-09-23T12:57:02.009Z,17.72
2022-09-23T12:59:28.137Z,17.99
2022-09-23T13:01:41.534Z,18.13
2022-09-23T13:04:02.953Z,18.22
2022-09-23T13:06:23.880Z,18.48
2022-09-23T13:08:32.039Z,18.21
2022-09-23T13:10:46.056Z,18.10
2022-09-23T13:13:00.790Z,18.00
2022-09-23T13:15:19.921Z,17.71
2022-09-23T13:17:39.488Z,17.74
2022-09-23T13:19:49.804Z,17.92
2022-09-23T13:22:16.053Z,18.00
2022-09-23T13:24:37.647Z,18.00
2022-09-23T13:26:48.534Z,17.82
2022-09-23T13:28:59.677Z,18.02
2022-09-23T13:31:09.209Z,18.11
2022-09-23T13:33:28.530Z,18.23
2022-09-23T13:35:40.091Z,18.34
2022-09-23T13:37:49.107Z,18.38
2022-09-23T13:40:10.424Z,18.50
2022-09-23T13:42:27.150Z,18.34
2022-09-23T13:44:34.892Z,18.11
2022-09-23T13:46:47.865Z,18.16
2022-09-23T13:48:59.215Z,18.16
2022-09-23T13:51:11.587Z,17.98
2022-09-23T13:53:26.072Z,17.85
2022-09-23T13:55:37.373Z,18.08
2022-09-23T13:57:45.824Z,18.26
2022-09-23T13:59:53.637Z,18.33
2022-09-23T14:02:09.270Z,18.50
2022-09-23T14:04:29.344Z,18.64
2022-09-23T14:06:44.105Z,18.81
2022-09-23T14:08:53.785Z,18.95
2022-09-23T14:11:06.298Z,18.85
2022-09-23T14:13:26.035Z,18.61
2022-09-23T14:15:34.222Z,18.75
2022-09-23T14:17:41.969Z,18.90
2022-09-23T14:19:53.044Z,18.99
2022-09-23T14:22:00.834Z,19.14
2022-09-23T14:24:17.072Z,19.22
2022-09-23T14:26:26.221Z,19.09
2022-09-23T14:28:34.166Z,19.26
2022-09-23T14:30:43.206Z,19.29
2022-09-23T14:32:51.316Z,19.33
2022-09-23T14:35:22.173Z,19.03
2022-09-23T14:37:45.756Z,18.97
2022-09-23T14:39:57.677Z,18.91
2022-09-23T14:42:09.931Z,18.62
2022-09-23T14:44:26.795Z,18.31
2022-09-23T14:46:36.449Z,17.88
2022-09-23T14:48:45.667Z,17.89
2022-09-23T14:51:00.313Z,18.15
2022-09-23T14:53:29.699Z,17.99
2022-09-23T14:55:37.618Z,17.86
2022-09-23T14:57:45.885Z,17.83
2022-09-23T14:59:56.104Z,18.07
2022-09-23T15:02:03.839Z,18.11
2022-09-23T15:04:17.675Z,18.00
2022-09-23T15:06:28.844Z,18.00
2022-09-23T15:08:37.766Z,18.08
2022-09-23T15:10:46.060Z,18.09
2022-09-23T15:12:55.402Z,17.85
2022-09-23T15:15:03.151Z,17.55
2022-09-23T15:17:32.977Z,17.54
2022-09-23T15:19:41.307Z,17.67
2022-09-23T15:21:55.771Z,17.70
2022-09-23T15:24:03.879Z,17.54
2022-09-23T15:26:14.173Z,17.53
2022-09-23T15:28:23.759Z,17.47
2022-09-23T15:30:32.309Z,17.43
2022-09-23T15:32:42.350Z,17.36
2022-09-23T15:34:52.064Z,17.33
2022-09-23T15:37:02.426Z,17.28
2022-09-23T15:39:10.781Z,17.15
2022-09-23T15:41:19.088Z,17.19
2022-09-23T15:43:28.230Z,17.17
2022-09-23T15:45:40.318Z,17.06
2022-09-23T15:47:48.201Z,17.09
2022-09-23T15:49:55.932Z,17.02
2022-09-23T15:52:10.359Z,16.92
2022-09-23T15:54:30.726Z,16.80
2022-09-23T15:56:42.374Z,16.73
2022-09-23T15:58:50.655Z,16.67
2022-09-23T16:00:59.902Z,16.58
2022-09-23T16:03:10.792Z,16.52
2022-09-23T16:05:28.024Z,16.46
2022-09-23T16:07:38.315Z,16.41
2022-09-23T16:09:49.325Z,16.36
2022-09-23T16:11:57.022Z,16.29
2022-09-23T16:14:05.157Z,16.17
2022-09-23T16:16:13.125Z,16.11
2022-09-23T16:18:21.051Z,16.11
2022-09-23T16:20:30.775Z,16.06
2022-09-23T16:22:41.878Z,15.94
2022-09-23T16:24:50.425Z,15.96
2022-09-23T16:27:00.758Z,15.90
2022-09-23T16:29:11.005Z,15.89
2022-09-23T16:31:20.655Z,15.91
2022-09-23T16:33:28.550Z,15.87
2022-09-23T16:35:36.943Z,15.76
2022-09-23T16:37:47.955Z,15.69
2022-09-23T16:39:55.750Z,15.58
2022-09-23T16:42:03.527Z,15.49
2022-09-23T16:44:12.625Z,15.40
2022-09-23T16:46:22.616Z,15.29
2022-09-23T16:48:30.419Z,15.20
2022-09-23T16:50:38.291Z,15.04
2022-09-23T16:52:48.709Z,15.01
2022-09-23T16:54:56.495Z,14.98
2022-09-23T16:57:04.344Z,14.86
2022-09-23T16:59:12.962Z,14.81
2022-09-23T17:01:36.615Z,14.77
2022-09-23T17:03:41.858Z,14.66
2022-09-23T17:05:50.857Z,14.57
2022-09-23T17:08:01.270Z,14.47
2022-09-23T17:10:11.947Z,14.38
2022-09-23T17:12:25.291Z,14.36
2022-09-23T17:14:34.733Z,14.35
2022-09-23T17:16:42.753Z,14.33
2022-09-23T17:18:50.571Z,14.30
2022-09-23T17:21:06.978Z,14.17
2022-09-23T17:23:17.299Z,14.14
2022-09-23T17:25:25.124Z,14.09
2022-09-23T17:27:35.159Z,14.02
2022-09-23T17:38:33.212Z,13.85
2022-09-23T17:40:41.620Z,13.81
2022-09-23T17:42:50.431Z,13.71
2022-09-23T17:44:59.465Z,13.65
2022-09-23T17:47:08.333Z,13.60
2022-09-23T17:49:17.945Z,13.56
2022-09-23T17:51:27.287Z,13.62
2022-09-23T17:53:42.369Z,13.48
2022-09-23T17:55:58.357Z,13.48
2022-09-23T17:58:06.172Z,13.42
2022-09-23T18:00:15.540Z,13.44
2022-09-23T18:02:23.698Z,13.78
2022-09-23T18:04:31.570Z,13.82
2022-09-23T18:06:41.592Z,13.83
2022-09-23T18:08:53.481Z,13.73
2022-09-23T18:11:01.213Z,13.55
2022-09-23T18:13:08.918Z,13.41
2022-09-23T18:15:19.953Z,13.31
2022-09-23T18:17:28.038Z,13.24
2022-09-23T18:19:35.761Z,13.22
2022-09-23T18:21:45.119Z,13.29
2022-09-23T18:23:59.764Z,13.22
2022-09-23T18:26:16.887Z,13.10
2022-09-23T18:28:24.737Z,13.07
2022-09-23T18:30:33.658Z,13.02
2022-09-23T18:32:41.400Z,13.15
2022-09-23T18:34:49.147Z,13.05
2022-09-23T18:36:57.287Z,12.97
2022-09-23T18:39:08.119Z,12.90
2022-09-23T18:41:16.154Z,12.87
2022-09-23T18:43:25.803Z,12.85
2022-09-23T18:45:33.904Z,12.81
2022-09-23T18:47:54.104Z,12.79
2022-09-23T18:50:14.600Z,12.72
2022-09-23T18:52:25.341Z,12.70
2022-09-23T18:54:35.671Z,12.67
2022-09-23T18:56:46.983Z,12.67
2022-09-23T18:58:56.407Z,12.66
2022-09-23T19:01:11.916Z,12.66
2022-09-23T19:03:19.881Z,12.63
2022-09-23T19:05:27.827Z,12.62
2022-09-23T19:07:35.576Z,12.65
2022-09-23T19:09:46.013Z,12.69
2022-09-23T19:11:54.444Z,12.75
2022-09-23T19:14:03.320Z,12.77
2022-09-23T19:16:13.394Z,13.01
2022-09-23T19:18:21.401Z,12.97
2022-09-23T19:20:29.223Z,12.88
2022-09-23T19:22:39.224Z,12.89
2022-09-23T19:24:50.238Z,12.80
2022-09-23T19:26:58.432Z,12.71
2022-09-23T19:29:08.463Z,12.64
2022-09-23T19:31:22.391Z,12.62
2022-09-23T19:33:30.332Z,12.67
2022-09-23T19:35:38.941Z,12.65
2022-09-23T19:37:46.814Z,12.59
2022-09-23T19:40:00.368Z,12.51
2022-09-23T19:42:08.104Z,12.47
2022-09-23T19:44:16.673Z,12.56
2022-09-23T19:46:24.656Z,12.66
2022-09-23T19:48:32.554Z,12.57
2022-09-23T19:50:41.651Z,12.53
2022-09-23T19:52:51.775Z,12.49
2022-09-23T19:55:04.053Z,12.47
2022-09-23T19:57:11.841Z,12.46
2022-09-23T19:59:23.470Z,12.49
2022-09-23T20:01:34.902Z,12.43
2022-09-23T20:03:42.666Z,12.42
2022-09-23T20:05:57.676Z,12.33
2022-09-23T20:08:06.740Z,12.28
2022-09-23T20:10:18.450Z,12.29
2022-09-23T20:12:26.294Z,12.37
2022-09-23T20:14:34.098Z,12.38
2022-09-23T20:16:41.973Z,12.41
2022-09-23T20:18:55.501Z,12.41
2022-09-23T20:21:03.179Z,12.34
2022-09-23T20:23:10.907Z,12.27
2022-09-23T20:25:21.253Z,12.27
2022-09-23T20:27:27.150Z,12.28
2022-09-23T20:29:34.918Z,12.32
2022-09-23T20:31:44.638Z,12.41
2022-09-23T20:33:55.002Z,12.36
2022-09-23T20:36:02.734Z,12.23
2022-09-23T20:38:11.506Z,12.14
2022-09-23T20:40:23.149Z,12.10
2022-09-23T20:42:31.216Z,12.01
2022-09-23T20:44:38.936Z,12.04
2022-09-23T20:46:48.783Z,12.00
2022-09-23T20:48:57.069Z,11.95
2022-09-23T20:51:05.463Z,11.87
2022-09-23T20:53:13.187Z,11.82
2022-09-23T20:55:23.531Z,11.79
2022-09-23T20:57:31.527Z,11.77
2022-09-23T20:59:39.214Z,11.77
2022-09-23T21:01:47.891Z,11.75
2022-09-23T21:03:56.192Z,11.74
2022-09-23T21:06:04.263Z,11.71
2022-09-23T21:08:12.633Z,11.63
2022-09-23T21:10:23.033Z,11.55
2022-09-23T21:12:31.751Z,11.54
2022-09-23T21:14:39.606Z,11.47
2022-09-23T21:16:47.816Z,11.52
2022-09-23T21:18:55.844Z,11.56
2022-09-23T21:21:04.102Z,11.50
2022-09-23T21:23:11.918Z,11.53
2022-09-23T21:25:28.298Z,11.49
2022-09-23T21:27:39.316Z,11.40
2022-09-23T21:29:47.048Z,11.37
2022-09-23T21:31:54.831Z,11.35
2022-09-23T21:34:04.161Z,11.34
2022-09-23T21:36:13.308Z,11.35
2022-09-23T21:38:21.025Z,11.41
2022-09-23T21:40:41.225Z,11.35
2022-09-23T21:42:52.220Z,11.27
2022-09-23T21:45:00.015Z,11.19
2022-09-23T21:47:07.979Z,11.08
2022-09-23T21:49:15.936Z,11.03
2022-09-23T21:51:25.857Z,11.12
2022-09-23T21:53:36.429Z,11.12
2022-09-23T21:55:44.225Z,11.13
2022-09-23T21:57:54.559Z,11.10
2022-09-23T22:00:02.791Z,11.05
2022-09-23T22:02:12.614Z,11.03
2022-09-23T22:04:21.274Z,11.02
2022-09-23T22:06:30.581Z,11.04
2022-09-23T22:08:40.271Z,11.04
2022-09-23T22:10:47.962Z,11.01
2022-09-23T22:12:55.730Z,11.03
2022-09-23T22:15:03.451Z,11.00
2022-09-23T22:17:16.548Z,11.16
2022-09-23T22:19:24.306Z,11.29
2022-09-23T22:21:33.857Z,11.21
2022-09-23T22:23:41.558Z,11.17
2022-09-23T22:25:49.295Z,11.19
2022-09-23T22:28:12.089Z,11.11
2022-09-23T22:30:32.204Z,11.07
2022-09-23T22:32:51.537Z,11.07
2022-09-23T22:35:02.162Z,11.03
2022-09-23T22:37:09.866Z,11.01
2022-09-23T22:39:17.715Z,11.08
2022-09-23T22:41:26.429Z,11.07
2022-09-23T22:43:37.809Z,11.03
2022-09-23T22:45:53.215Z,10.99
2022-09-23T22:48:00.915Z,10.97
2022-09-23T22:50:10.612Z,10.91
2022-09-23T22:52:24.188Z,10.84
2022-09-23T22:54:34.146Z,10.85
2022-09-23T22:56:42.198Z,10.80
2022-09-23T22:58:52.546Z,10.76
2022-09-23T23:01:02.608Z,10.86
2022-09-23T23:03:10.300Z,10.76
2022-09-23T23:05:18.258Z,10.73
2022-09-23T23:07:25.926Z,10.72
2022-09-23T23:09:33.609Z,10.71
2022-09-23T23:11:43.864Z,10.78
2022-09-23T23:13:54.500Z,10.80
2022-09-23T23:16:05.430Z,10.81
2022-09-23T23:18:13.168Z,10.80
2022-09-23T23:20:21.088Z,10.85
2022-09-23T23:22:30.437Z,10.91
2022-09-23T23:24:38.154Z,10.99
2022-09-23T23:26:46.704Z,10.98
2022-09-23T23:28:58.210Z,10.90
2022-09-23T23:31:06.852Z,10.93
2022-09-23T23:33:14.911Z,10.87
2022-09-23T23:35:22.594Z,10.79
2022-09-23T23:37:31.751Z,10.69
2022-09-23T23:39:39.436Z,10.68
2022-09-23T23:41:48.553Z,10.78
2022-09-23T23:44:01.297Z,10.69
2022-09-23T23:46:09.807Z,10.66
2022-09-23T23:48:17.583Z,10.56
2022-09-23T23:50:26.034Z,10.54
2022-09-23T23:52:33.732Z,10.49
2022-09-23T23:54:41.395Z,10.47
2022-09-23T23:56:49.107Z,10.55
2022-09-23T23:59:00.981Z,10.47
